createdAt,value
2023-02-27T00:01:19.329Z,99544.59
2023-02-27T00:04:08.332Z,99545.05
2023-02-27T00:06:57.396Z,99544.14
2023-02-27T00:09:46.451Z,99550.30
2023-02-27T00:12:39.039Z,99552.21
2023-02-27T00:15:31.060Z,99553.27
2023-02-27T00:18:19.972Z,99558.55
2023-02-27T00:21:08.943Z,99560.95
2023-02-27T00:23:58.020Z,99559.77
2023-02-27T00:26:47.131Z,99563.81
2023-02-27T00:29:36.018Z,99564.76
2023-02-27T00:32:25.056Z,99563.51
2023-02-27T00:35:13.985Z,99566.33
2023-02-27T00:38:02.917Z,99566.55
2023-02-27T00:40:52.957Z,99566.91
2023-02-27T00:43:41.621Z,99563.66
2023-02-27T00:46:30.566Z,99565.41
2023-02-27T00:49:20.044Z,99566.84
2023-02-27T00:52:09.817Z,99566.38
2023-02-27T00:54:58.835Z,99563.42
2023-02-27T00:57:47.956Z,99558.00
2023-02-27T01:00:37.133Z,99558.81
2023-02-27T01:03:26.326Z,99559.73
2023-02-27T01:06:16.122Z,99547.53
2023-02-27T01:09:04.964Z,99554.11
2023-02-27T01:11:53.923Z,99552.72
2023-02-27T01:14:44.567Z,99551.06
2023-02-27T01:17:33.504Z,99551.89
2023-02-27T01:20:22.509Z,99546.58
2023-02-27T01:23:11.634Z,99539.80
2023-02-27T01:26:00.534Z,99544.20
2023-02-27T01:28:49.374Z,99546.71
2023-02-27T01:31:38.328Z,99550.42
2023-02-27T01:34:27.475Z,99549.48
2023-02-27T01:37:18.355Z,99549.15
2023-02-27T01:40:08.572Z,99548.50
2023-02-27T01:42:57.399Z,99549.33
2023-02-27T01:45:49.000Z,99556.83
2023-02-27T01:48:39.641Z,99557.39
2023-02-27T01:51:33.232Z,99562.71
2023-02-27T01:54:26.306Z,99570.05
2023-02-27T01:57:15.959Z,99578.36
2023-02-27T02:00:06.265Z,99571.08
2023-02-27T02:04:09.232Z,99579.27
2023-02-27T02:07:06.325Z,99582.77
2023-02-27T02:09:59.548Z,99583.22
2023-02-27T02:12:52.463Z,99584.09
2023-02-27T02:15:50.885Z,99583.46
2023-02-27T02:19:13.406Z,99587.83
2023-02-27T02:22:38.783Z,99588.36
2023-02-27T02:25:49.958Z,99588.19
2023-02-27T02:29:14.424Z,99588.20
2023-02-27T02:32:34.427Z,99590.66
2023-02-27T02:35:49.264Z,99589.34
2023-02-27T02:39:05.552Z,99598.53
2023-02-27T02:42:03.309Z,99612.21
2023-02-27T02:45:23.287Z,99612.10
2023-02-27T02:48:30.650Z,99617.45
2023-02-27T02:51:31.041Z,99620.09
2023-02-27T02:54:43.545Z,99617.58
2023-02-27T02:57:38.032Z,99618.48
2023-02-27T03:00:41.479Z,99620.96
2023-02-27T03:03:39.317Z,99625.59
2023-02-27T03:06:33.252Z,99624.65
2023-02-27T03:09:34.929Z,99634.80
2023-02-27T03:12:26.103Z,99637.63
2023-02-27T03:15:30.677Z,99644.23
2023-02-27T03:18:29.714Z,99649.42
2023-02-27T03:21:31.318Z,99650.30
2023-02-27T03:24:26.444Z,99657.64
2023-02-27T03:27:19.185Z,99658.44
2023-02-27T03:30:15.997Z,99656.86
2023-02-27T03:33:12.107Z,99655.45
2023-02-27T03:36:16.383Z,99665.14
2023-02-27T03:39:22.324Z,99667.23
2023-02-27T03:42:31.855Z,99670.05
2023-02-27T03:45:53.071Z,99673.04
2023-02-27T03:48:44.723Z,99679.66
2023-02-27T03:51:35.043Z,99679.23
2023-02-27T03:54:31.618Z,99683.89
2023-02-27T03:57:20.572Z,99685.81
2023-02-27T04:00:13.765Z,99692.39
2023-02-27T04:03:04.650Z,99692.15
2023-02-27T04:05:53.850Z,99696.14
2023-02-27T04:08:55.087Z,99697.56
2023-02-27T04:11:59.198Z,99694.80
2023-02-27T04:15:00.132Z,99694.42
2023-02-27T04:18:19.917Z,99691.66
2023-02-27T04:21:19.815Z,99693.68
2023-02-27T04:24:14.058Z,99696.98
2023-02-27T04:27:13.428Z,99693.23
2023-02-27T04:30:07.970Z,99694.95
2023-02-27T04:33:07.604Z,99696.70
2023-02-27T04:36:06.342Z,99698.91
2023-02-27T04:39:01.276Z,99697.34
2023-02-27T04:42:13.065Z,99697.61
2023-02-27T04:45:06.508Z,99696.34
2023-02-27T04:48:26.508Z,99690.74
2023-02-27T04:51:27.396Z,99693.54
2023-02-27T04:54:22.758Z,99693.88
2023-02-27T04:57:17.355Z,99698.88
2023-02-27T05:00:09.989Z,99704.26
2023-02-27T05:03:10.245Z,99703.56
2023-02-27T05:06:01.594Z,99707.60
2023-02-27T05:09:04.184Z,99711.22
2023-02-27T05:12:28.963Z,99714.24
2023-02-27T05:15:36.146Z,99717.58
2023-02-27T05:18:25.788Z,99715.63
2023-02-27T05:21:31.184Z,99716.59
2023-02-27T05:25:04.642Z,99719.42
2023-02-27T05:28:08.495Z,99723.81
2023-02-27T05:31:10.055Z,99728.40
2023-02-27T05:34:13.356Z,99731.38
2023-02-27T05:37:15.121Z,99736.41
2023-02-27T05:40:08.652Z,99741.45
2023-02-27T05:43:06.590Z,99738.26
2023-02-27T05:46:10.236Z,99743.17
2023-02-27T05:49:02.957Z,99749.01
2023-02-27T05:51:57.191Z,99750.19
2023-02-27T05:54:56.988Z,99753.69
2023-02-27T05:57:51.949Z,99755.60
2023-02-27T06:00:51.982Z,99753.21
2023-02-27T06:03:41.890Z,99757.52
2023-02-27T06:06:31.322Z,99755.09
2023-02-27T06:09:20.850Z,99757.86
2023-02-27T06:12:10.064Z,99761.15
2023-02-27T06:14:59.135Z,99759.40
2023-02-27T06:17:47.777Z,99759.48
2023-02-27T06:20:36.855Z,99763.59
2023-02-27T06:23:25.380Z,99766.20
2023-02-27T06:26:14.659Z,99767.23
2023-02-27T06:29:03.553Z,99773.54
2023-02-27T06:31:52.441Z,99775.98
2023-02-27T06:34:41.011Z,99778.05
2023-02-27T06:37:30.207Z,99778.98
2023-02-27T06:40:19.262Z,99775.33
2023-02-27T06:43:07.988Z,99779.36
2023-02-27T06:45:56.646Z,99780.65
2023-02-27T06:48:45.978Z,99782.45
2023-02-27T06:51:34.863Z,99785.83
2023-02-27T06:54:23.825Z,99791.33
2023-02-27T06:57:12.452Z,99805.37
2023-02-27T07:00:01.530Z,99807.48
2023-02-27T07:02:50.209Z,99807.77
2023-02-27T07:05:41.826Z,99808.52
2023-02-27T07:08:30.510Z,99815.67
2023-02-27T07:11:19.902Z,99824.45
2023-02-27T07:14:08.745Z,99823.62
2023-02-27T07:16:58.054Z,99823.02
2023-02-27T07:19:46.679Z,99822.77
2023-02-27T07:22:36.066Z,99821.71
2023-02-27T07:25:24.697Z,99823.36
2023-02-27T07:28:14.754Z,99827.95
2023-02-27T07:31:03.599Z,99830.68
2023-02-27T07:33:52.823Z,99829.10
2023-02-27T07:36:41.884Z,99831.72
2023-02-27T07:39:31.296Z,99825.48
2023-02-27T07:42:19.899Z,99827.98
2023-02-27T07:45:10.052Z,99822.48
2023-02-27T07:47:58.809Z,99825.23
2023-02-27T07:50:47.761Z,99835.16
2023-02-27T07:53:36.544Z,99834.89
2023-02-27T07:56:27.012Z,99834.23
2023-02-27T07:59:15.795Z,99837.80
2023-02-27T08:02:04.903Z,99840.25
2023-02-27T08:04:54.004Z,99840.02
2023-02-27T08:07:43.450Z,99843.73
2023-02-27T08:10:32.188Z,99845.05
2023-02-27T08:13:42.218Z,99841.94
2023-02-27T08:16:32.112Z,99846.22
2023-02-27T08:19:21.304Z,99846.71
2023-02-27T08:22:09.926Z,99851.86
2023-02-27T08:24:58.895Z,99859.85
2023-02-27T08:27:47.561Z,99866.91
2023-02-27T08:30:37.053Z,99870.50
2023-02-27T08:33:26.011Z,99872.67
2023-02-27T08:36:15.342Z,99876.79
2023-02-27T08:39:04.381Z,99879.14
2023-02-27T08:41:53.435Z,99884.96
2023-02-27T08:44:56.527Z,99885.02
2023-02-27T08:48:20.593Z,99891.07
2023-02-27T08:51:22.066Z,99895.56
2023-02-27T08:54:13.210Z,99893.59
2023-02-27T08:57:23.516Z,99894.61
2023-02-27T09:00:45.637Z,99900.45
2023-02-27T09:03:47.241Z,99902.70
2023-02-27T09:06:36.662Z,99904.01
2023-02-27T09:09:25.338Z,99908.61
2023-02-27T09:12:14.291Z,99911.83
2023-02-27T09:15:05.916Z,99918.77
2023-02-27T09:17:56.755Z,99923.53
2023-02-27T09:20:46.030Z,99924.64
2023-02-27T09:23:35.070Z,99927.34
2023-02-27T09:26:39.703Z,99927.60
2023-02-27T09:29:31.514Z,99932.39
2023-02-27T09:32:20.280Z,99929.66
2023-02-27T09:35:09.634Z,99930.66
2023-02-27T09:38:01.343Z,99935.81
2023-02-27T09:40:52.821Z,99939.60
2023-02-27T09:43:47.759Z,99939.38
2023-02-27T09:46:37.544Z,99940.66
2023-02-27T09:49:32.253Z,99944.81
2023-02-27T09:52:21.435Z,99946.65
2023-02-27T09:55:19.986Z,99950.82
2023-02-27T09:58:31.689Z,99953.09
2023-02-27T10:01:20.428Z,99950.75
2023-02-27T10:04:33.371Z,99956.25
2023-02-27T10:07:38.776Z,99959.77
2023-02-27T10:10:48.694Z,99965.81
2023-02-27T10:13:49.414Z,99974.33
2023-02-27T10:16:39.734Z,99974.13
2023-02-27T10:19:35.841Z,99979.33
2023-02-27T10:22:38.757Z,99979.45
2023-02-27T10:25:32.039Z,99985.63
2023-02-27T10:28:22.729Z,99985.21
2023-02-27T10:31:18.183Z,99982.39
2023-02-27T10:34:13.457Z,99982.73
2023-02-27T10:37:06.470Z,99980.06
2023-02-27T10:39:58.956Z,99977.05
2023-02-27T10:42:48.184Z,99974.12
2023-02-27T10:45:38.938Z,99976.69
2023-02-27T10:48:27.761Z,99977.59
2023-02-27T10:51:38.324Z,99972.16
2023-02-27T10:54:27.162Z,99973.16
2023-02-27T10:57:36.887Z,99971.61
2023-02-27T11:00:53.551Z,99962.85
2023-02-27T11:03:44.703Z,99962.98
2023-02-27T11:06:34.321Z,99955.20
2023-02-27T11:09:29.877Z,99953.96
2023-02-27T11:12:30.849Z,99950.33
2023-02-27T11:15:28.281Z,99959.12
2023-02-27T11:18:29.456Z,99957.63
2023-02-27T11:21:28.079Z,99954.59
2023-02-27T11:24:20.229Z,99958.73
2023-02-27T11:27:30.247Z,99960.30
2023-02-27T11:30:28.872Z,99962.41
2023-02-27T11:33:20.338Z,99958.50
2023-02-27T11:36:10.020Z,99951.91
2023-02-27T11:39:02.158Z,99959.93
2023-02-27T11:41:52.342Z,99954.50
2023-02-27T11:44:51.618Z,99961.35
2023-02-27T11:47:41.386Z,99960.33
2023-02-27T11:50:49.074Z,99964.27
2023-02-27T11:54:03.067Z,99963.88
2023-02-27T11:57:15.998Z,99967.62
2023-02-27T12:00:18.270Z,99970.65
2023-02-27T12:03:18.443Z,99965.56
2023-02-27T12:06:26.185Z,99961.73
2023-02-27T12:09:51.551Z,99958.91
2023-02-27T12:12:48.342Z,99956.56
2023-02-27T12:15:56.064Z,99951.39
2023-02-27T12:19:12.742Z,99953.06
2023-02-27T12:22:20.657Z,99953.11
2023-02-27T12:25:21.010Z,99956.02
2023-02-27T12:28:33.471Z,99955.36
2023-02-27T12:31:37.841Z,99953.89
2023-02-27T12:34:38.781Z,99955.80
2023-02-27T12:37:30.523Z,99961.48
2023-02-27T12:40:24.443Z,99961.66
2023-02-27T12:43:38.477Z,99964.39
2023-02-27T12:46:52.511Z,99967.84
2023-02-27T12:49:59.518Z,99970.95
2023-02-27T12:53:07.806Z,99974.90
2023-02-27T12:56:02.833Z,99976.45
2023-02-27T12:59:08.113Z,99977.34
2023-02-27T13:02:20.597Z,99982.04
2023-02-27T13:05:47.327Z,99986.43
2023-02-27T13:08:54.432Z,99985.83
2023-02-27T13:12:08.013Z,99987.33
2023-02-27T13:15:04.701Z,99988.38
2023-02-27T13:18:06.055Z,99987.02
2023-02-27T13:21:24.324Z,99992.21
2023-02-27T13:24:24.347Z,99989.96
2023-02-27T13:27:39.502Z,99987.02
2023-02-27T13:30:36.112Z,99986.44
2023-02-27T13:33:37.983Z,99982.77
2023-02-27T13:36:41.195Z,99987.14
2023-02-27T13:39:46.413Z,99997.64
2023-02-27T13:42:35.999Z,99995.52
2023-02-27T13:45:54.175Z,99995.50
2023-02-27T13:48:46.484Z,99996.36
2023-02-27T13:51:35.361Z,99994.02
2023-02-27T13:54:31.620Z,99993.30
2023-02-27T13:57:47.191Z,99996.48
2023-02-27T14:00:38.146Z,99995.39
2023-02-27T14:03:30.502Z,99996.16
2023-02-27T14:06:20.082Z,99997.76
2023-02-27T14:09:15.038Z,99997.77
2023-02-27T14:12:07.261Z,99997.38
2023-02-27T14:14:56.564Z,99995.81
2023-02-27T14:17:48.693Z,99998.59
2023-02-27T14:20:41.332Z,100002.42
2023-02-27T14:23:30.720Z,100006.70
2023-02-27T14:26:24.394Z,100006.95
2023-02-27T14:29:18.792Z,100005.05
2023-02-27T14:32:08.541Z,100008.80
2023-02-27T14:34:57.466Z,100006.30
2023-02-27T14:37:51.526Z,100013.95
2023-02-27T14:41:00.659Z,100015.95
2023-02-27T14:43:56.579Z,100016.05
2023-02-27T14:46:45.789Z,100017.92
2023-02-27T14:49:36.074Z,100017.27
2023-02-27T14:52:24.825Z,100023.98
2023-02-27T14:55:29.228Z,100023.41
2023-02-27T14:58:22.757Z,100030.48
2023-02-27T15:01:11.934Z,100031.70
2023-02-27T15:04:01.288Z,100037.44
2023-02-27T15:06:52.201Z,100034.38
2023-02-27T15:09:44.899Z,100039.49
2023-02-27T15:12:39.331Z,100046.23
2023-02-27T15:15:28.626Z,100048.98
2023-02-27T15:18:18.361Z,100053.30
2023-02-27T15:21:15.101Z,100059.19
2023-02-27T15:24:06.688Z,100062.41
2023-02-27T15:26:57.138Z,100068.58
2023-02-27T15:29:56.067Z,100067.69
2023-02-27T15:32:44.809Z,100074.05
2023-02-27T15:35:37.950Z,100077.56
2023-02-27T15:38:35.482Z,100082.83
2023-02-27T15:41:24.385Z,100086.98
2023-02-27T15:44:14.918Z,100090.80
2023-02-27T15:47:05.218Z,100092.16
2023-02-27T15:50:09.390Z,100095.88
2023-02-27T15:53:15.174Z,100097.95
2023-02-27T15:56:09.633Z,100102.06
2023-02-27T15:59:01.203Z,100110.05
2023-02-27T16:01:50.087Z,100110.81
2023-02-27T16:04:38.865Z,100117.20
2023-02-27T16:07:29.619Z,100120.19
2023-02-27T16:10:28.434Z,100123.83
2023-02-27T16:13:35.059Z,100127.07
2023-02-27T16:16:26.817Z,100133.33
2023-02-27T16:19:34.211Z,100135.63
2023-02-27T16:22:24.022Z,100139.25
2023-02-27T16:25:19.440Z,100146.25
2023-02-27T16:28:15.314Z,100147.73
2023-02-27T16:31:05.744Z,100154.28
2023-02-27T16:33:56.987Z,100158.25
2023-02-27T16:36:55.232Z,100157.67
2023-02-27T16:39:44.016Z,100161.35
2023-02-27T16:42:33.588Z,100164.95
2023-02-27T16:45:26.147Z,100165.77
2023-02-27T16:48:14.916Z,100169.03
2023-02-27T16:51:04.448Z,100175.64
2023-02-27T16:53:55.039Z,100176.48
2023-02-27T16:56:46.532Z,100185.19
2023-02-27T16:59:40.116Z,100187.77
2023-02-27T17:02:29.040Z,100193.98
2023-02-27T17:05:18.994Z,100196.08
2023-02-27T17:08:09.555Z,100192.87
2023-02-27T17:11:01.658Z,100193.52
2023-02-27T17:13:50.730Z,100200.29
2023-02-27T17:16:39.683Z,100202.95
2023-02-27T17:19:28.750Z,100207.23
2023-02-27T17:22:17.629Z,100207.30
2023-02-27T17:25:07.373Z,100212.84
2023-02-27T17:27:56.097Z,100211.29
2023-02-27T17:30:45.684Z,100213.71
2023-02-27T17:33:34.844Z,100214.89
2023-02-27T17:36:23.936Z,100217.13
2023-02-27T17:39:14.375Z,100217.05
2023-02-27T17:42:03.586Z,100216.02
2023-02-27T17:44:52.510Z,100215.36
2023-02-27T17:47:41.702Z,100211.54
2023-02-27T17:50:32.191Z,100208.08
2023-02-27T17:53:21.651Z,100209.34
2023-02-27T17:56:12.048Z,100210.83
2023-02-27T17:59:00.872Z,100211.82
2023-02-27T18:01:49.621Z,100213.02
2023-02-27T18:04:38.736Z,100214.20
2023-02-27T18:07:27.722Z,100211.61
2023-02-27T18:10:16.631Z,100217.11
2023-02-27T18:13:05.595Z,100214.02
2023-02-27T18:15:56.235Z,100215.25
2023-02-27T18:18:45.134Z,100215.80
2023-02-27T18:21:34.668Z,100216.61
2023-02-27T18:24:23.447Z,100221.61
2023-02-27T18:27:12.199Z,100223.05
2023-02-27T18:30:01.135Z,100222.46
2023-02-27T18:32:50.114Z,100222.67
2023-02-27T18:35:38.839Z,100226.72
2023-02-27T18:38:27.799Z,100227.20
2023-02-27T18:41:17.875Z,100228.21
2023-02-27T18:44:08.483Z,100231.52
2023-02-27T18:46:57.348Z,100234.48
2023-02-27T18:49:46.226Z,100236.04
2023-02-27T18:52:37.187Z,100235.80
2023-02-27T18:55:26.163Z,100231.02
2023-02-27T18:58:15.230Z,100234.53
2023-02-27T19:01:04.729Z,100231.95
2023-02-27T19:03:59.341Z,100237.16
2023-02-27T19:06:48.240Z,100234.04
2023-02-27T19:09:37.086Z,100238.31
2023-02-27T19:12:26.658Z,100240.77
2023-02-27T19:15:15.335Z,100237.80
2023-02-27T19:18:04.694Z,100238.77
2023-02-27T19:20:54.845Z,100239.48
2023-02-27T19:23:44.161Z,100241.10
2023-02-27T19:26:34.407Z,100246.79
2023-02-27T19:29:23.221Z,100245.89
2023-02-27T19:32:13.844Z,100246.29
2023-02-27T19:35:02.854Z,100244.95
2023-02-27T19:37:58.232Z,100247.91
2023-02-27T19:40:47.232Z,100248.59
2023-02-27T19:43:38.150Z,100251.92
2023-02-27T19:46:30.649Z,100251.55
2023-02-27T19:49:20.447Z,100254.77
2023-02-27T19:52:10.334Z,100254.98
2023-02-27T19:54:59.325Z,100254.52
2023-02-27T19:57:48.175Z,100258.35
2023-02-27T20:00:37.270Z,100263.35
2023-02-27T20:03:26.218Z,100264.52
2023-02-27T20:06:20.450Z,100265.64
2023-02-27T20:09:11.574Z,100267.61
2023-02-27T20:12:01.666Z,100271.81
2023-02-27T20:14:50.447Z,100272.84
2023-02-27T20:17:41.431Z,100274.27
2023-02-27T20:20:32.011Z,100275.83
2023-02-27T20:23:21.069Z,100277.14
2023-02-27T20:26:40.272Z,100274.98
2023-02-27T20:29:29.215Z,100273.05
2023-02-27T20:32:18.135Z,100270.23
2023-02-27T20:35:07.742Z,100273.91
2023-02-27T20:37:56.407Z,100280.24
2023-02-27T20:40:45.164Z,100279.66
2023-02-27T20:43:34.023Z,100279.65
2023-02-27T20:46:26.684Z,100279.45
2023-02-27T20:49:15.890Z,100279.31
2023-02-27T20:52:04.826Z,100280.34
2023-02-27T20:54:55.329Z,100277.97
2023-02-27T20:57:44.590Z,100280.27
2023-02-27T21:00:33.468Z,100281.44
2023-02-27T21:03:22.495Z,100284.64
2023-02-27T21:06:13.953Z,100291.48
2023-02-27T21:09:06.497Z,100291.00
2023-02-27T21:11:55.207Z,100293.44
2023-02-27T21:14:44.586Z,100295.92
2023-02-27T21:17:33.335Z,100295.63
2023-02-27T21:20:22.221Z,100298.55
2023-02-27T21:23:10.881Z,100298.35
2023-02-27T21:25:59.981Z,100298.46
2023-02-27T21:29:01.514Z,100302.20
2023-02-27T21:31:54.094Z,100309.73
2023-02-27T21:34:45.215Z,100311.20
2023-02-27T21:37:34.131Z,100313.43
2023-02-27T21:40:22.846Z,100316.55
2023-02-27T21:43:12.015Z,100319.84
2023-02-27T21:46:08.990Z,100320.54
2023-02-27T21:48:57.946Z,100320.73
2023-02-27T21:51:47.306Z,100326.69
2023-02-27T21:54:36.642Z,100320.90
2023-02-27T21:57:25.272Z,100319.21
2023-02-27T22:00:14.394Z,100316.64
2023-02-27T22:03:03.420Z,100320.98
2023-02-27T22:05:52.606Z,100322.55
2023-02-27T22:08:41.681Z,100325.63
2023-02-27T22:11:31.925Z,100325.60
2023-02-27T22:14:20.617Z,100328.27
2023-02-27T22:17:10.755Z,100327.54
2023-02-27T22:19:59.401Z,100326.70
2023-02-27T22:22:48.371Z,100325.85
2023-02-27T22:25:37.172Z,100326.61
2023-02-27T22:28:25.952Z,100326.73
2023-02-27T22:31:24.261Z,100324.57
2023-02-27T22:34:20.706Z,100325.81
2023-02-27T22:37:09.413Z,100326.96
2023-02-27T22:39:58.041Z,100330.56
2023-02-27T22:42:48.076Z,100332.96
2023-02-27T22:45:36.969Z,100332.94
2023-02-27T22:48:25.867Z,100333.97
2023-02-27T22:51:15.923Z,100335.52
2023-02-27T22:54:06.003Z,100334.95
2023-02-27T22:56:58.220Z,100336.52
2023-02-27T22:59:49.620Z,100338.59
2023-02-27T23:02:41.033Z,100338.73
2023-02-27T23:05:29.829Z,100338.13
2023-02-27T23:08:20.705Z,100333.56
2023-02-27T23:11:14.991Z,100336.51
2023-02-27T23:14:04.044Z,100339.51
2023-02-27T23:16:53.189Z,100344.54
2023-02-27T23:19:42.466Z,100343.48
2023-02-27T23:22:33.529Z,100350.08
2023-02-27T23:25:23.049Z,100357.03
2023-02-27T23:28:12.139Z,100357.48
2023-02-27T23:31:02.153Z,100356.84
2023-02-27T23:33:50.894Z,100358.35
2023-02-27T23:36:40.908Z,100361.52
2023-02-27T23:39:29.891Z,100360.66
2023-02-27T23:42:37.828Z,100365.11
2023-02-27T23:45:26.650Z,100365.96
2023-02-27T23:48:16.120Z,100367.64
2023-02-27T23:51:07.156Z,100370.16
2023-02-27T23:53:56.444Z,100371.35
2023-02-27T23:56:46.707Z,100377.98
2023-02-27T23:59:36.068Z,100373.02
